Time;durP1;ratioP1;P1;durP2;ratioP2;P2;SDS_P1;SDS_P2;PMS_P1;PMS_P2;Temp;Humidity;BMP_temperature;BMP_pressure;BME280_temperature;BME280_humidity;BME280_pressure;Samples;Min_cycle;Max_cycle;Signal;HPM_P1;HPM_P2
2022/04/26 03:37:58;;;;;;;9.37;1.70;;;17.70;68.80;;;;;;5005502;28;20033;-73
2022/04/26 03:40:25;;;;;;;11.15;1.90;;;17.70;68.90;;;;;;5015894;28;20417;-71
2022/04/26 03:42:51;;;;;;;8.60;1.30;;;17.70;68.70;;;;;;5027589;28;20022;-70
2022/04/26 03:45:18;;;;;;;4.60;1.92;;;17.60;68.80;;;;;;5025890;28;20092;-69
2022/04/26 03:47:44;;;;;;;6.05;2.20;;;17.60;68.90;;;;;;5026059;28;20036;-71
2022/04/26 03:50:10;;;;;;;9.52;2.58;;;17.60;69.70;;;;;;5027651;28;20017;-68
2022/04/26 03:52:41;;;;;;;11.45;1.88;;;17.60;69.10;;;;;;5025716;28;20040;-67
2022/04/26 03:55:08;;;;;;;7.03;2.78;;;17.60;69.30;;;;;;5027121;28;20040;-70
2022/04/26 03:57:34;;;;;;;16.25;2.65;;;17.50;69.40;;;;;;5024369;28;20392;-70
2022/04/26 04:00:01;;;;;;;8.40;2.80;;;17.50;69.40;;;;;;5025872;28;20432;-66
2022/04/26 04:02:28;;;;;;;11.10;2.15;;;17.50;69.50;;;;;;5024281;28;20018;-67
2022/04/26 04:04:54;;;;;;;13.82;2.17;;;17.50;69.50;;;;;;5027552;28;20039;-70
2022/04/26 04:07:21;;;;;;;13.88;2.13;;;17.50;69.70;;;;;;5025491;28;20376;-72
2022/04/26 04:09:47;;;;;;;8.25;2.88;;;17.50;70.20;;;;;;5025219;28;20048;-69
2022/04/26 04:12:14;;;;;;;7.55;2.80;;;17.50;70.40;;;;;;5028057;28;20029;-70
2022/04/26 04:14:40;;;;;;;13.70;3.72;;;17.50;70.70;;;;;;5024814;28;20484;-72
2022/04/26 04:17:07;;;;;;;10.63;2.60;;;17.60;71.00;;;;;;5027152;28;20365;-73
2022/04/26 04:19:33;;;;;;;14.95;8.43;;;17.60;70.80;;;;;;5025843;28;20067;-68
2022/04/26 04:22:00;;;;;;;16.08;7.88;;;17.50;71.80;;;;;;5008936;28;20388;-71
2022/04/26 04:24:26;;;;;;;10.68;4.90;;;17.50;71.70;;;;;;5026446;28;20032;-74
2022/04/26 04:26:52;;;;;;;10.85;4.03;;;17.50;71.60;;;;;;5025821;28;20580;-76
2022/04/26 04:29:19;;;;;;;15.35;3.92;;;17.60;71.60;;;;;;5027167;28;20079;-75
2022/04/26 04:31:45;;;;;;;11.02;2.58;;;17.60;71.30;;;;;;5025599;28;20036;-77
2022/04/26 04:34:12;;;;;;;10.52;3.30;;;17.50;70.90;;;;;;5027299;28;20507;-73
2022/04/26 04:36:38;;;;;;;12.40;3.70;;;17.50;70.80;;;;;;5025945;28;20026;-77
2022/04/26 04:39:05;;;;;;;15.60;2.78;;;17.50;70.80;;;;;;5025998;28;20024;-73
2022/04/26 04:41:36;;;;;;;7.43;2.25;;;17.50;70.90;;;;;;5026561;28;20419;-69
2022/04/26 04:44:04;;;;;;;12.88;2.13;;;17.50;70.90;;;;;;5025760;28;20029;-68
2022/04/26 04:46:30;;;;;;;7.95;3.75;;;17.40;70.70;;;;;;5024900;28;20053;-68
2022/04/26 04:48:57;;;;;;;8.25;3.10;;;17.40;70.60;;;;;;5026066;28;20114;-68
2022/04/26 04:51:23;;;;;;;8.35;2.88;;;17.40;70.60;;;;;;5025305;28;20029;-66
2022/04/26 04:53:50;;;;;;;11.95;3.40;;;17.40;70.70;;;;;;5028856;28;20144;-67
2022/04/26 04:56:16;;;;;;;10.00;2.33;;;17.40;71.00;;;;;;5031165;28;20021;-67
2022/04/26 04:58:43;;;;;;;7.47;2.55;;;17.40;72.00;;;;;;5028139;28;20021;-66
2022/04/26 05:01:09;;;;;;;9.73;2.78;;;17.40;71.40;;;;;;5030830;28;20017;-67
2022/04/26 05:03:36;;;;;;;8.40;3.17;;;17.40;71.70;;;;;;5029794;28;20025;-66
2022/04/26 05:06:02;;;;;;;9.88;5.55;;;17.40;71.70;;;;;;5029648;28;20017;-69
2022/04/26 05:08:29;;;;;;;18.40;2.83;;;17.40;72.20;;;;;;5030432;28;20026;-67
2022/04/26 05:10:55;;;;;;;18.63;3.72;;;17.40;72.60;;;;;;5029734;28;20064;-67
2022/04/26 05:13:22;;;;;;;25.33;3.78;;;17.40;73.20;;;;;;5030303;28;20417;-67
2022/04/26 05:15:48;;;;;;;13.48;2.95;;;17.40;73.00;;;;;;5028326;28;20010;-67
2022/04/26 05:18:15;;;;;;;9.07;2.55;;;17.50;73.10;;;;;;5030813;28;20025;-65
2022/04/26 05:20:43;;;;;;;8.07;3.10;;;17.50;73.00;;;;;;5028418;28;20107;-64
2022/04/26 05:25:54;;;;;;;10.17;2.87;;;17.50;73.10;;;;;;5029881;28;20439;-69
2022/04/26 05:28:20;;;;;;;5.53;2.10;;;17.50;73.40;;;;;;5029120;28;20353;-66
2022/04/26 05:30:47;;;;;;;16.92;3.80;;;17.50;73.30;;;;;;5029646;28;20014;-67
2022/04/26 05:33:13;;;;;;;11.52;3.03;;;17.50;73.50;;;;;;5029833;28;20104;-72
2022/04/26 05:35:40;;;;;;;9.38;3.22;;;17.50;73.60;;;;;;5011436;28;20013;-65
2022/04/26 05:38:06;;;;;;;13.98;3.58;;;17.50;73.60;;;;;;5028603;28;20120;-66
2022/04/26 05:40:33;;;;;;;7.60;2.42;;;17.50;73.60;;;;;;5029888;28;20483;-68
2022/04/26 05:42:59;;;;;;;8.02;3.42;;;17.50;73.70;;;;;;5029406;28;20052;-66
2022/04/26 05:45:27;;;;;;;6.07;2.53;;;17.50;73.70;;;;;;5028166;28;20075;-65
2022/04/26 05:47:56;;;;;;;11.30;2.70;;;17.50;73.80;;;;;;5030378;28;20057;-69
2022/04/26 05:50:23;;;;;;;10.40;3.10;;;17.50;73.90;;;;;;5027966;28;20028;-68
2022/04/26 05:52:49;;;;;;;10.40;3.05;;;17.50;74.00;;;;;;5027443;28;20384;-68
2022/04/26 05:55:16;;;;;;;13.45;2.85;;;17.50;74.20;;;;;;5029341;28;20022;-68
2022/04/26 05:57:43;;;;;;;8.60;2.25;;;17.50;74.20;;;;;;5028709;28;20388;-69
2022/04/26 06:00:14;;;;;;;5.82;2.70;;;17.50;74.30;;;;;;5030061;28;20483;-72
2022/04/26 06:02:42;;;;;;;9.43;3.58;;;17.50;74.30;;;;;;5029052;28;20068;-71
2022/04/26 06:05:09;;;;;;;10.57;2.90;;;17.50;74.30;;;;;;5030130;28;20029;-66
2022/04/26 06:07:35;;;;;;;7.85;2.58;;;17.50;74.40;;;;;;5009345;28;20095;-70
2022/04/26 06:10:03;;;;;;;5.43;2.85;;;17.60;74.40;;;;;;5028812;28;20033;-65
2022/04/26 06:12:31;;;;;;;6.53;2.47;;;17.50;74.30;;;;;;5027678;28;20037;-65
2022/04/26 06:14:58;;;;;;;12.43;3.22;;;17.50;74.10;;;;;;5029540;28;20110;-70
2022/04/26 06:17:25;;;;;;;14.02;3.00;;;17.60;74.10;;;;;;5029374;28;20068;-68
2022/04/26 06:19:51;;;;;;;10.43;2.85;;;17.60;74.30;;;;;;5027827;28;20049;-65
2022/04/26 06:22:18;;;;;;;16.80;3.72;;;17.60;74.40;;;;;;5029612;28;20021;-71
2022/04/26 06:24:45;;;;;;;9.93;2.50;;;17.60;74.20;;;;;;5027174;28;20040;-65
2022/04/26 06:27:11;;;;;;;8.70;3.05;;;17.60;74.10;;;;;;5030015;28;20041;-64
2022/04/26 06:29:38;;;;;;;16.27;3.33;;;17.60;73.90;;;;;;5008250;28;20026;-67
2022/04/26 06:32:04;;;;;;;11.52;2.95;;;17.60;73.80;;;;;;5028831;28;20108;-71
2022/04/26 06:34:31;;;;;;;6.95;2.63;;;17.60;73.80;;;;;;5025071;28;20115;-68
2022/04/26 06:36:57;;;;;;;9.43;3.35;;;17.70;73.70;;;;;;5028562;28;20063;-66
2022/04/26 06:39:24;;;;;;;6.35;2.35;;;17.70;73.60;;;;;;5027552;28;20014;-72
2022/04/26 06:41:50;;;;;;;11.05;2.90;;;17.70;73.70;;;;;;5027652;28;20036;-68
2022/04/26 06:44:17;;;;;;;13.88;3.00;;;17.70;73.60;;;;;;5027540;28;20023;-66
2022/04/26 06:46:44;;;;;;;11.65;3.83;;;17.70;73.50;;;;;;5026683;28;21041;-69
2022/04/26 06:49:10;;;;;;;24.88;4.63;;;17.70;73.40;;;;;;5029067;28;20670;-74
2022/04/26 06:51:44;;;;;;;9.07;3.95;;;17.70;73.70;;;;;;5026843;28;20531;-65
2022/04/26 06:54:13;;;;;;;7.65;3.63;;;17.80;73.50;;;;;;5027300;28;20032;-71
2022/04/26 06:56:45;;;;;;;7.65;2.42;;;17.80;73.30;;;;;;5010163;28;20021;-67
2022/04/26 06:59:13;;;;;;;10.63;2.10;;;17.80;72.90;;;;;;5026139;28;20147;-74
2022/04/26 07:01:40;;;;;;;9.63;1.92;;;17.90;72.50;;;;;;5027055;28;20131;-66
2022/04/26 07:04:07;;;;;;;3.80;1.30;;;17.80;72.00;;;;;;5027482;28;20014;-67
2022/04/26 07:06:34;;;;;;;3.80;1.40;;;17.90;71.60;;;;;;5026580;28;20469;-70
2022/04/26 07:09:03;;;;;;;4.50;1.50;;;17.90;71.00;;;;;;5025849;28;20039;-68
2022/04/26 07:11:29;;;;;;;7.80;1.50;;;17.90;70.30;;;;;;5027398;28;20014;-76
2022/04/26 07:13:57;;;;;;;2.85;1.00;;;18.00;70.50;;;;;;5027747;28;20481;-70
2022/04/26 07:16:24;;;;;;;8.77;1.75;;;18.00;69.40;;;;;;5027158;28;20029;-66
2022/04/26 07:18:50;;;;;;;2.83;1.13;;;18.00;69.40;;;;;;5027880;28;20018;-68
2022/04/26 07:21:17;;;;;;;8.75;1.95;;;18.10;69.40;;;;;;5027073;28;20041;-69
2022/04/26 07:23:43;;;;;;;5.70;1.55;;;18.10;69.10;;;;;;5027774;28;20013;-70
2022/04/26 07:26:10;;;;;;;4.68;1.58;;;18.10;68.90;;;;;;5027426;28;20021;-72
2022/04/26 07:28:36;;;;;;;7.13;1.33;;;18.20;68.40;;;;;;5026880;28;20111;-71
2022/04/26 07:31:04;;;;;;;7.80;2.00;;;18.20;67.90;;;;;;5027916;28;20028;-67
2022/04/26 07:36:24;;;;;;;4.85;1.38;;;18.20;67.60;;;;;;5025201;28;20432;-69
2022/04/26 07:38:51;;;;;;;8.77;1.52;;;18.20;67.40;;;;;;5006968;28;20386;-70
2022/04/26 07:41:18;;;;;;;6.80;1.85;;;18.20;67.00;;;;;;5028401;28;20175;-71
2022/04/26 07:43:45;;;;;;;7.18;1.40;;;18.20;66.90;;;;;;5026159;28;20105;-72
2022/04/26 07:46:14;;;;;;;12.05;1.55;;;18.20;67.10;;;;;;5027600;28;20032;-76
2022/04/26 07:48:43;;;;;;;8.82;1.20;;;18.30;67.10;;;;;;5027952;28;20536;-76
2022/04/26 07:51:11;;;;;;;4.07;1.42;;;18.30;66.70;;;;;;5026497;28;20024;-75
2022/04/26 07:53:38;;;;;;;4.65;2.05;;;18.30;66.50;;;;;;5010436;28;20076;-75
2022/04/26 07:56:06;;;;;;;4.07;1.25;;;18.30;66.90;;;;;;5026409;28;20057;-74
2022/04/26 07:58:32;;;;;;;4.72;1.40;;;18.40;66.60;;;;;;5026727;28;20128;-73
2022/04/26 08:01:00;;;;;;;6.38;1.33;;;18.40;67.00;;;;;;5027030;28;20064;-75
2022/04/26 08:03:26;;;;;;;4.00;1.05;;;18.40;67.00;;;;;;5026614;28;20029;-74
2022/04/26 08:05:53;;;;;;;7.35;1.45;;;18.40;66.70;;;;;;5026843;28;20030;-73
2022/04/26 08:08:20;;;;;;;6.70;1.38;;;18.50;66.50;;;;;;5026196;28;20018;-74
2022/04/26 08:10:46;;;;;;;5.40;2.17;;;18.50;66.60;;;;;;5026697;28;20022;-75
2022/04/26 08:13:13;;;;;;;6.07;1.95;;;18.50;66.60;;;;;;5025796;28;20025;-74
2022/04/26 08:15:39;;;;;;;6.63;1.20;;;18.60;66.00;;;;;;5027627;28;20256;-72
2022/04/26 08:18:09;;;;;;;3.15;0.93;;;18.60;66.00;;;;;;5027041;28;20018;-75
2022/04/26 08:20:37;;;;;;;5.35;1.63;;;18.70;66.30;;;;;;5007394;28;20046;-73
2022/04/26 08:23:06;;;;;;;7.90;1.13;;;18.70;66.40;;;;;;5006444;28;20061;-75
2022/04/26 08:28:19;;;;;;;7.32;1.33;;;18.80;66.30;;;;;;5027385;28;20449;-75
2022/04/26 08:30:45;;;;;;;7.50;1.50;;;18.80;66.10;;;;;;5025107;28;20132;-73
2022/04/26 08:33:12;;;;;;;3.10;1.38;;;18.90;66.10;;;;;;5027803;28;20068;-75
2022/04/26 08:35:39;;;;;;;4.93;1.02;;;18.90;66.10;;;;;;5025262;28;20548;-71
2022/04/26 08:38:05;;;;;;;18.10;1.95;;;19.00;65.60;;;;;;5027326;28;20725;-75
2022/04/26 08:40:32;;;;;;;9.93;1.92;;;19.00;65.20;;;;;;5025873;28;20547;-72
2022/04/26 08:42:59;;;;;;;3.35;1.38;;;19.00;64.50;;;;;;5025897;28;20096;-70
2022/04/26 08:45:26;;;;;;;8.30;1.75;;;19.10;64.50;;;;;;5026031;28;20076;-75
2022/04/26 08:53:23;;;;;;;3.05;1.30;;;19.10;63.60;;;;;;5027000;28;20545;-75
2022/04/26 08:55:53;;;;;;;4.28;1.02;;;19.20;63.80;;;;;;5024231;28;20018;-73
2022/04/26 08:58:20;;;;;;;6.05;1.23;;;19.20;63.70;;;;;;5026427;28;20104;-70
2022/04/26 09:01:09;;;;;;;4.20;1.00;;;19.30;63.40;;;;;;5025501;28;20049;-74
2022/04/26 09:03:55;;;;;;;7.80;1.42;;;19.30;63.10;;;;;;5026622;28;20492;-71
2022/04/26 09:06:32;;;;;;;3.33;1.42;;;19.30;62.70;;;;;;5025741;28;20067;-69
2022/04/26 09:09:08;;;;;;;3.33;1.00;;;19.30;62.40;;;;;;5025689;28;20029;-73
2022/04/26 09:11:36;;;;;;;1.67;0.95;;;19.40;61.80;;;;;;5006346;28;20032;-73
2022/04/26 09:14:07;;;;;;;5.15;1.10;;;19.50;61.00;;;;;;5023912;28;20064;-75
2022/04/26 09:16:34;;;;;;;1.85;0.68;;;19.50;60.40;;;;;;5024975;28;20080;-74
2022/04/26 09:19:06;;;;;;;2.70;1.00;;;19.60;60.10;;;;;;5026129;28;20097;-74
2022/04/26 09:21:34;;;;;;;2.80;0.73;;;19.60;59.20;;;;;;5025969;28;20040;-72
2022/04/26 09:24:06;;;;;;;6.45;1.20;;;19.70;59.00;;;;;;5026040;28;20060;-72
2022/04/26 09:26:38;;;;;;;8.00;1.10;;;19.70;58.60;;;;;;5024444;28;20772;-75
2022/04/26 09:29:06;;;;;;;9.35;1.73;;;19.70;58.70;;;;;;5026258;28;20117;-69
2022/04/26 09:31:35;;;;;;;11.25;1.65;;;19.70;58.80;;;;;;5025616;28;20029;-75
2022/04/26 09:34:06;;;;;;;10.20;1.40;;;19.80;59.00;;;;;;5026502;28;20021;-73
2022/04/26 09:36:42;;;;;;;5.20;1.23;;;19.80;59.30;;;;;;5024563;28;20358;-75
2022/04/26 09:39:09;;;;;;;8.23;0.98;;;19.80;58.70;;;;;;5027963;28;20026;-73
2022/04/26 09:41:37;;;;;;;8.32;1.27;;;19.90;58.70;;;;;;5029198;28;20077;-72
2022/04/26 09:44:09;;;;;;;3.33;1.00;;;20.00;58.70;;;;;;5027372;28;20424;-74
2022/04/26 09:46:49;;;;;;;3.40;1.10;;;20.00;58.80;;;;;;5028866;28;20029;-74
2022/04/26 09:49:21;;;;;;;4.10;0.90;;;20.00;58.40;;;;;;5027652;28;20520;-73
2022/04/26 09:51:59;;;;;;;2.55;0.93;;;20.10;58.50;;;;;;5030227;28;20029;-73
2022/04/26 09:54:26;;;;;;;4.38;0.95;;;20.20;58.50;;;;;;5028195;28;20029;-70
2022/04/26 09:56:53;;;;;;;5.03;1.25;;;20.20;58.80;;;;;;5028563;28;20017;-74
2022/04/26 09:59:28;;;;;;;5.85;1.83;;;20.20;58.80;;;;;;5030003;28;20033;-69
2022/04/26 10:01:57;;;;;;;4.53;1.05;;;20.30;59.00;;;;;;5028514;28;20018;-72
2022/04/26 10:04:26;;;;;;;5.93;1.40;;;20.30;59.00;;;;;;5029902;28;20079;-74
2022/04/26 10:07:08;;;;;;;3.85;1.15;;;20.40;58.80;;;;;;5029203;28;20127;-74
2022/04/26 10:09:35;;;;;;;3.97;1.35;;;20.40;58.50;;;;;;5027428;28;20104;-70
2022/04/26 10:12:03;;;;;;;6.13;1.67;;;20.50;58.60;;;;;;5029681;28;20025;-72
2022/04/26 10:14:32;;;;;;;4.68;1.08;;;20.50;58.20;;;;;;5028714;28;20423;-72
2022/04/26 10:16:59;;;;;;;7.78;1.20;;;20.50;57.90;;;;;;5028968;28;20428;-72
2022/04/26 10:19:44;;;;;;;4.82;0.95;;;20.60;57.30;;;;;;5028238;28;20472;-74
2022/04/26 10:22:14;;;;;;;7.32;1.60;;;20.60;57.40;;;;;;5028425;28;20109;-71
2022/04/26 10:25:08;;;;;;;4.60;1.30;;;20.70;57.50;;;;;;5028477;28;20068;-73
2022/04/26 10:27:35;;;;;;;3.10;1.02;;;20.70;57.80;;;;;;5028094;28;20562;-73
2022/04/26 10:30:01;;;;;;;4.90;1.70;;;20.80;57.70;;;;;;5028991;28;20473;-73
2022/04/26 10:32:38;;;;;;;4.32;1.40;;;20.80;57.70;;;;;;5028834;28;20366;-73
2022/04/26 10:35:23;;;;;;;2.60;1.00;;;20.90;57.50;;;;;;5028670;28;20021;-69
2022/04/26 10:38:12;;;;;;;5.22;1.77;;;21.00;57.70;;;;;;5029386;28;20048;-72
2022/04/26 10:41:07;;;;;;;3.08;2.22;;;21.00;57.60;;;;;;5027829;28;20026;-72
2022/04/26 10:43:34;;;;;;;3.47;0.90;;;21.10;57.10;;;;;;5026465;28;20465;-74
2022/04/26 10:46:15;;;;;;;4.45;1.40;;;21.10;56.80;;;;;;5029057;28;20030;-70
2022/04/26 10:48:42;;;;;;;2.00;0.80;;;21.10;56.40;;;;;;5025420;28;20366;-74
2022/04/26 10:51:34;;;;;;;5.82;0.85;;;21.20;56.40;;;;;;5026100;28;20026;-68
2022/04/26 10:54:02;;;;;;;3.85;1.13;;;21.20;56.00;;;;;;5027794;28;20030;-73
2022/04/26 10:56:43;;;;;;;15.07;2.15;;;21.20;56.00;;;;;;5011458;28;20022;-69
2022/04/26 10:59:30;;;;;;;4.63;1.10;;;21.30;56.10;;;;;;5027922;28;20424;-71
2022/04/26 11:01:57;;;;;;;6.40;1.48;;;21.30;56.20;;;;;;5026195;28;20017;-70
2022/04/26 11:04:23;;;;;;;7.97;1.17;;;21.40;56.60;;;;;;5028951;28;20040;-73
2022/04/26 11:06:50;;;;;;;16.42;3.15;;;21.40;56.30;;;;;;5027328;28;20029;-70
2022/04/26 11:09:17;;;;;;;8.40;1.90;;;21.50;56.80;;;;;;5029828;28;20025;-68
2022/04/26 11:12:02;;;;;;;8.43;1.08;;;21.50;56.50;;;;;;5029391;28;20043;-73
2022/04/26 11:14:29;;;;;;;6.20;1.10;;;21.60;56.40;;;;;;5028730;28;20033;-70
2022/04/26 11:16:59;;;;;;;3.15;0.90;;;21.60;56.20;;;;;;5030113;28;20096;-70
2022/04/26 11:19:36;;;;;;;7.38;1.40;;;21.60;56.30;;;;;;5035651;28;20120;-67
2022/04/26 11:22:07;;;;;;;5.63;1.15;;;21.70;56.40;;;;;;5028368;28;21442;-72
2022/04/26 11:30:05;;;;;;;;;;;21.90;56.40;;;;;;5028471;28;20049;-69
2022/04/26 11:32:43;;;;;;;6.72;1.45;;;21.90;56.10;;;;;;5028308;28;19913;-72
2022/04/26 11:35:10;;;;;;;9.45;1.50;;;22.00;56.40;;;;;;5026671;28;20026;-66
2022/04/26 11:37:48;;;;;;;5.20;1.30;;;22.00;56.00;;;;;;5010687;28;20109;-69
2022/04/26 11:40:31;;;;;;;5.07;0.75;;;22.00;55.50;;;;;;5029285;28;20022;-69
2022/04/26 11:43:05;;;;;;;5.00;1.55;;;22.10;55.30;;;;;;5027867;28;20096;-70
2022/04/26 11:45:34;;;;;;;7.13;1.40;;;22.10;55.00;;;;;;5026567;28;20052;-67
2022/04/26 11:48:01;;;;;;;5.72;1.35;;;22.10;54.90;;;;;;5029559;28;20025;-68
2022/04/26 11:50:29;;;;;;;11.50;1.73;;;22.10;54.60;;;;;;5028254;28;20594;-69
2022/04/26 11:53:06;;;;;;;4.95;1.30;;;22.10;54.50;;;;;;5029050;28;20036;-68
2022/04/26 11:55:43;;;;;;;10.10;1.85;;;22.20;54.50;;;;;;5029035;28;20017;-70
2022/04/26 11:58:21;;;;;;;5.78;1.65;;;22.20;54.60;;;;;;5027921;28;20017;-70
2022/04/26 12:01:03;;;;;;;6.82;1.48;;;22.20;54.60;;;;;;5029436;28;20013;-73
2022/04/26 12:03:40;;;;;;;6.93;1.33;;;22.30;54.90;;;;;;5026493;28;20048;-69
2022/04/26 12:06:08;;;;;;;7.55;1.27;;;22.30;55.00;;;;;;5028558;28;20108;-70
2022/04/26 12:08:43;;;;;;;6.18;1.95;;;22.40;54.80;;;;;;5029101;28;20693;-73
2022/04/26 12:11:38;;;;;;;8.45;2.70;;;22.40;54.80;;;;;;5026036;28;20484;-68
2022/04/26 12:14:07;;;;;;;8.47;1.10;;;22.40;54.60;;;;;;5027927;28;20038;-71
2022/04/26 12:16:40;;;;;;;6.00;1.48;;;22.50;54.50;;;;;;5028065;28;20357;-69
2022/04/26 12:19:06;;;;;;;4.68;0.95;;;22.40;54.50;;;;;;5028333;28;20021;-67
2022/04/26 12:21:47;;;;;;;7.55;2.00;;;22.40;54.30;;;;;;5028716;28;20046;-67
2022/04/26 12:24:26;;;;;;;9.88;2.22;;;22.40;54.40;;;;;;5027831;28;20391;-73
2022/04/26 12:26:55;;;;;;;6.05;1.77;;;22.40;54.40;;;;;;5008769;28;20473;-73
2022/04/26 12:29:26;;;;;;;6.70;2.45;;;22.50;54.40;;;;;;5027454;28;20037;-72
2022/04/26 12:31:53;;;;;;;6.22;1.73;;;22.40;54.10;;;;;;5028569;28;20018;-72
2022/04/26 12:34:22;;;;;;;4.22;1.50;;;22.40;54.10;;;;;;5027604;28;20018;-69
2022/04/26 12:36:58;;;;;;;9.95;1.77;;;22.40;53.90;;;;;;5028675;28;20357;-70
2022/04/26 12:39:31;;;;;;;22.05;2.75;;;22.40;53.70;;;;;;5026685;28;20033;-72
2022/04/26 12:41:59;;;;;;;6.03;1.60;;;22.40;53.70;;;;;;5026263;28;20019;-72
2022/04/26 12:44:26;;;;;;;41.63;2.42;;;22.40;53.80;;;;;;5028693;28;20033;-71
2022/04/26 12:52:44;;;;;;;9.27;1.52;;;22.30;53.40;;;;;;5027310;28;20049;-73
2022/04/26 12:55:11;;;;;;;13.48;1.85;;;22.40;53.60;;;;;;5027758;28;20014;-73
2022/04/26 12:57:49;;;;;;;10.75;1.55;;;22.40;53.50;;;;;;5028542;28;20052;-73
2022/04/26 13:00:15;;;;;;;6.13;1.48;;;22.40;53.10;;;;;;5025122;28;20037;-72
2022/04/26 13:02:42;;;;;;;10.70;2.40;;;22.40;53.00;;;;;;5028422;28;20788;-73
2022/04/26 13:05:09;;;;;;;4.57;1.08;;;22.40;52.80;;;;;;5027422;28;20088;-70
2022/04/26 13:07:37;;;;;;;5.43;1.13;;;22.40;52.80;;;;;;5028045;28;20021;-74
2022/04/26 13:10:04;;;;;;;12.85;1.38;;;22.40;52.70;;;;;;5028032;28;20022;-74
2022/04/26 13:12:31;;;;;;;6.40;0.95;;;22.40;52.50;;;;;;5027858;28;20136;-75
2022/04/26 13:15:00;;;;;;;8.15;1.35;;;22.40;52.60;;;;;;5032280;28;20108;-74
2022/04/26 13:17:29;;;;;;;6.72;1.60;;;22.40;52.40;;;;;;5028437;28;20056;-72
2022/04/26 13:19:56;;;;;;;7.45;2.42;;;22.40;52.20;;;;;;5031907;28;20044;-76
2022/04/26 13:22:22;;;;;;;4.50;1.38;;;22.40;52.00;;;;;;5031159;28;20021;-74
2022/04/26 13:24:51;;;;;;;11.52;1.00;;;22.30;52.00;;;;;;5032055;28;20047;-75
2022/04/26 13:27:18;;;;;;;3.58;0.82;;;22.30;52.00;;;;;;5030845;28;20082;-70
2022/04/26 13:29:45;;;;;;;6.25;1.27;;;22.30;52.20;;;;;;5031119;28;20128;-74
2022/04/26 13:32:12;;;;;;;5.90;1.08;;;22.30;52.40;;;;;;5031891;28;20049;-75
2022/04/26 13:34:38;;;;;;;2.60;1.20;;;22.30;52.40;;;;;;5030590;28;20014;-74
2022/04/26 13:37:07;;;;;;;6.43;1.13;;;22.20;52.30;;;;;;5031808;28;20021;-73
2022/04/26 13:39:35;;;;;;;8.45;1.10;;;22.20;52.30;;;;;;5030655;28;20076;-72
2022/04/26 13:42:01;;;;;;;14.02;1.45;;;22.20;52.30;;;;;;5029213;28;20009;-74
2022/04/26 13:44:30;;;;;;;5.30;1.48;;;22.20;52.40;;;;;;5031293;28;20021;-75
2022/04/26 13:46:58;;;;;;;4.50;1.05;;;22.20;52.40;;;;;;5030768;28;20168;-74
2022/04/26 13:49:25;;;;;;;4.32;1.13;;;22.20;52.40;;;;;;5031720;28;20029;-73
2022/04/26 13:51:52;;;;;;;7.50;1.38;;;22.10;52.40;;;;;;5030414;28;20014;-72
2022/04/26 13:54:18;;;;;;;5.75;1.92;;;22.10;52.50;;;;;;5031524;28;20021;-72
2022/04/26 13:56:49;;;;;;;6.03;1.55;;;22.10;52.50;;;;;;5030469;28;20010;-73
2022/04/26 13:59:16;;;;;;;6.80;1.13;;;22.10;52.40;;;;;;5031637;28;20017;-74
2022/04/26 14:01:42;;;;;;;7.82;1.58;;;22.10;52.20;;;;;;5030861;28;20038;-74
2022/04/26 14:04:09;;;;;;;4.72;1.20;;;22.10;52.00;;;;;;5030632;28;20028;-72
2022/04/26 14:06:35;;;;;;;4.45;1.20;;;22.10;52.00;;;;;;5028832;28;20032;-71
2022/04/26 14:09:04;;;;;;;2.88;1.10;;;22.10;52.10;;;;;;5030442;28;20032;-71
2022/04/26 14:11:31;;;;;;;6.75;1.98;;;22.00;52.10;;;;;;5031206;28;20017;-71
2022/04/26 14:22:13;;;;;;;6.47;1.10;;;21.90;52.30;;;;;;5029104;28;20029;-72
2022/04/26 14:24:39;;;;;;;10.13;1.30;;;21.90;52.40;;;;;;5029734;28;20259;-73
2022/04/26 14:27:07;;;;;;;6.70;1.65;;;21.90;52.50;;;;;;5028421;28;20412;-74
2022/04/26 14:29:33;;;;;;;10.48;2.78;;;21.90;52.60;;;;;;5029544;28;20108;-72
2022/04/26 14:32:00;;;;;;;7.32;2.20;;;21.90;53.00;;;;;;5023738;28;20060;-73
2022/04/26 14:34:29;;;;;;;17.17;4.13;;;21.90;53.30;;;;;;5026867;28;20551;-74
2022/04/26 14:36:58;;;;;;;19.52;8.05;;;21.90;54.50;;;;;;5027327;28;20076;-74
2022/04/26 14:39:25;;;;;;;30.23;12.18;;;21.80;55.30;;;;;;5027501;28;20029;-75
2022/04/26 14:41:51;;;;;;;56.28;12.13;;;21.80;55.90;;;;;;5027801;28;20026;-69
2022/04/26 14:44:18;;;;;;;38.03;6.85;;;21.80;55.70;;;;;;5024789;28;20021;-71
2022/04/26 14:46:45;;;;;;;27.25;4.25;;;21.80;56.60;;;;;;5026353;28;20033;-71
2022/04/26 14:49:11;;;;;;;26.67;3.42;;;21.80;55.10;;;;;;5025415;28;20018;-71
2022/04/26 14:51:38;;;;;;;15.07;6.88;;;21.70;54.50;;;;;;5028081;28;20030;-72
2022/04/26 14:54:04;;;;;;;8.80;3.40;;;21.70;54.20;;;;;;5028580;28;20116;-69
2022/04/26 14:56:30;;;;;;;7.70;3.20;;;21.60;54.00;;;;;;5027257;28;20457;-73
2022/04/26 14:59:00;;;;;;;8.90;2.28;;;21.60;54.70;;;;;;5028408;28;20404;-71
2022/04/26 15:01:29;;;;;;;9.48;1.75;;;21.60;54.20;;;;;;5027188;28;20088;-69
2022/04/26 15:03:56;;;;;;;4.10;1.20;;;21.50;54.20;;;;;;5028301;28;20021;-69
2022/04/26 15:06:23;;;;;;;8.70;1.95;;;21.50;54.20;;;;;;5027828;28;20013;-73
2022/04/26 15:11:35;;;;;;;7.20;1.63;;;21.40;54.60;;;;;;5028971;28;20040;-70
2022/04/26 15:16:49;;;;;;;6.35;2.03;;;21.30;55.40;;;;;;5028432;28;20084;-67
2022/04/26 15:19:16;;;;;;;15.90;2.38;;;21.30;56.00;;;;;;5026848;28;20034;-73
2022/04/26 15:21:43;;;;;;;16.10;1.60;;;21.20;56.40;;;;;;5028458;28;20071;-68
2022/04/26 15:24:11;;;;;;;13.85;1.80;;;21.30;56.70;;;;;;5027178;28;20025;-67
2022/04/26 15:26:39;;;;;;;8.27;2.53;;;21.30;56.90;;;;;;5026928;28;20021;-74
2022/04/26 15:29:05;;;;;;;7.55;1.52;;;21.20;56.60;;;;;;5026833;28;20040;-75
2022/04/26 15:31:33;;;;;;;5.53;1.75;;;21.20;56.50;;;;;;5026092;28;20121;-74
2022/04/26 15:34:00;;;;;;;9.93;1.70;;;21.10;56.40;;;;;;5028404;28;20124;-72
2022/04/26 15:36:26;;;;;;;8.20;2.35;;;21.10;56.60;;;;;;5025539;28;20026;-76
2022/04/26 15:38:58;;;;;;;10.02;3.08;;;21.10;56.90;;;;;;5027911;28;20036;-69
2022/04/26 15:42:04;;;;;;;5.78;1.60;;;21.00;57.30;;;;;;5026429;28;20026;-67
2022/04/26 15:44:31;;;;;;;9.20;1.70;;;21.00;57.40;;;;;;5027487;28;20049;-74
2022/04/26 15:46:58;;;;;;;13.93;2.88;;;21.00;57.30;;;;;;5026918;28;20029;-72
2022/04/26 15:49:25;;;;;;;6.63;1.88;;;21.00;57.60;;;;;;5024131;28;20025;-75
2022/04/26 15:51:56;;;;;;;9.73;2.22;;;20.90;57.60;;;;;;5028210;28;20009;-76
2022/04/26 15:54:22;;;;;;;9.13;3.47;;;20.90;57.70;;;;;;5027218;28;20064;-75
2022/04/26 15:56:49;;;;;;;11.23;2.67;;;20.90;58.00;;;;;;5026300;28;20501;-75
2022/04/26 15:59:16;;;;;;;9.32;4.47;;;20.80;58.10;;;;;;5027695;28;20412;-74
2022/04/26 16:01:42;;;;;;;11.65;5.80;;;20.80;58.20;;;;;;5025944;28;20017;-70
2022/04/26 16:04:10;;;;;;;10.13;4.40;;;20.80;58.50;;;;;;5027712;28;20028;-68
2022/04/26 16:06:41;;;;;;;14.70;4.65;;;20.80;58.60;;;;;;5024371;28;20623;-70
2022/04/26 16:22:54;;;;;;;5.15;2.08;;;20.60;59.00;;;;;;5023106;28;20128;-73
2022/04/26 16:25:23;;;;;;;6.00;2.22;;;20.50;59.20;;;;;;5007502;28;20045;-66
2022/04/26 16:27:49;;;;;;;6.75;2.08;;;20.50;59.20;;;;;;5004343;28;20404;-69
2022/04/26 16:30:17;;;;;;;8.45;1.77;;;20.50;59.20;;;;;;5024993;28;20018;-67
2022/04/26 16:32:44;;;;;;;12.73;2.33;;;20.50;59.10;;;;;;5023498;28;20056;-71
2022/04/26 16:35:11;;;;;;;6.80;3.05;;;20.40;59.20;;;;;;5025134;28;20025;-65
2022/04/26 16:37:44;;;;;;;5.25;1.75;;;20.40;59.70;;;;;;5024552;28;20021;-64
2022/04/26 16:40:11;;;;;;;7.63;2.22;;;20.40;59.10;;;;;;5023141;28;20029;-67
2022/04/26 16:43:17;;;;;;;7.90;2.10;;;20.40;59.10;;;;;;5022549;28;20497;-66
2022/04/26 16:46:25;;;;;;;8.05;1.98;;;20.40;59.20;;;;;;5024074;28;20579;-66
2022/04/26 16:49:11;;;;;;;8.77;2.13;;;20.30;59.20;;;;;;5022857;28;20026;-67
2022/04/26 16:51:37;;;;;;;;;;;20.30;59.20;;;;;;5022839;28;20021;-71
2022/04/26 16:54:04;;;;;;;4.97;2.17;;;20.30;59.20;;;;;;5021628;28;19925;-65
2022/04/26 16:56:37;;;;;;;9.75;2.97;;;20.30;59.30;;;;;;5024060;28;20087;-66
2022/04/26 16:59:03;;;;;;;10.48;3.03;;;20.20;59.20;;;;;;5021295;28;20087;-68
2022/04/26 17:01:30;;;;;;;14.90;2.45;;;20.20;59.30;;;;;;5023512;28;20071;-74
2022/04/26 17:03:57;;;;;;;15.38;3.40;;;20.20;59.50;;;;;;5021286;28;20031;-67
2022/04/26 17:06:24;;;;;;;16.95;3.03;;;20.20;59.60;;;;;;5023898;28;20664;-66
2022/04/26 17:08:50;;;;;;;8.10;2.70;;;20.20;59.70;;;;;;5023272;28;20030;-66
2022/04/26 17:14:02;;;;;;;11.60;3.27;;;20.10;59.80;;;;;;5023502;28;20048;-68
2022/04/26 17:16:28;;;;;;;9.02;4.07;;;20.10;59.90;;;;;;5021512;28;20025;-65
2022/04/26 17:18:55;;;;;;;6.05;1.83;;;20.10;59.90;;;;;;5022097;28;20048;-65
2022/04/26 17:21:22;;;;;;;5.50;2.47;;;20.10;60.00;;;;;;5022860;28;20044;-68
2022/04/26 17:23:49;;;;;;;12.35;2.58;;;20.00;60.00;;;;;;5022208;28;20116;-70
2022/04/26 17:26:19;;;;;;;7.07;2.53;;;20.00;60.10;;;;;;5023863;28;20018;-65
2022/04/26 17:28:46;;;;;;;8.32;2.33;;;20.00;60.30;;;;;;5022479;28;20706;-66